sensor_id;sensor_type;location;lat;lon;timestamp;temperature;humidity
35497;DHT22;21609;49.298;6.844;2022-10-16T00:01:58;20.50;57.30
35497;DHT22;21609;49.298;6.844;2022-10-16T00:04:24;20.50;57.30
35497;DHT22;21609;49.298;6.844;2022-10-16T00:06:49;20.50;57.30
35497;DHT22;21609;49.298;6.844;2022-10-16T00:09:15;20.50;57.30
35497;DHT22;21609;49.298;6.844;2022-10-16T00:11:41;20.50;57.30
35497;DHT22;21609;49.298;6.844;2022-10-16T00:14:10;20.50;57.30
35497;DHT22;21609;49.298;6.844;2022-10-16T00:16:36;20.50;57.30
35497;DHT22;21609;49.298;6.844;2022-10-16T00:19:02;20.40;57.30
35497;DHT22;21609;49.298;6.844;2022-10-16T00:21:29;20.50;57.30
35497;DHT22;21609;49.298;6.844;2022-10-16T00:24:01;20.50;57.30
35497;DHT22;21609;49.298;6.844;2022-10-16T00:26:28;20.50;57.30
35497;DHT22;21609;49.298;6.844;2022-10-16T00:28:54;20.50;57.30
35497;DHT22;21609;49.298;6.844;2022-10-16T00:31:22;20.50;57.40
35497;DHT22;21609;49.298;6.844;2022-10-16T00:33:48;20.40;57.30
35497;DHT22;21609;49.298;6.844;2022-10-16T00:36:16;20.50;57.30
35497;DHT22;21609;49.298;6.844;2022-10-16T00:38:42;20.40;57.30
35497;DHT22;21609;49.298;6.844;2022-10-16T00:41:12;20.40;57.30
35497;DHT22;21609;49.298;6.844;2022-10-16T00:43:40;20.40;57.30
35497;DHT22;21609;49.298;6.844;2022-10-16T00:46:13;20.40;57.30
35497;DHT22;21609;49.298;6.844;2022-10-16T00:48:39;20.40;57.30
35497;DHT22;21609;49.298;6.844;2022-10-16T00:51:06;20.40;57.30
35497;DHT22;21609;49.298;6.844;2022-10-16T00:53:32;20.40;57.30
35497;DHT22;21609;49.298;6.844;2022-10-16T00:55:58;20.40;57.30
35497;DHT22;21609;49.298;6.844;2022-10-16T00:58:24;20.40;57.30
35497;DHT22;21609;49.298;6.844;2022-10-16T01:00:49;20.40;57.30
35497;DHT22;21609;49.298;6.844;2022-10-16T01:03:33;20.40;57.30
35497;DHT22;21609;49.298;6.844;2022-10-16T01:11:50;20.40;57.30
35497;DHT22;21609;49.298;6.844;2022-10-16T01:14:30;20.30;57.30
35497;DHT22;21609;49.298;6.844;2022-10-16T01:17:04;20.40;57.30
35497;DHT22;21609;49.298;6.844;2022-10-16T01:19:38;20.30;57.30
35497;DHT22;21609;49.298;6.844;2022-10-16T01:22:08;20.30;57.30
35497;DHT22;21609;49.298;6.844;2022-10-16T01:24:44;20.30;57.30
35497;DHT22;21609;49.298;6.844;2022-10-16T01:27:22;20.30;57.30
35497;DHT22;21609;49.298;6.844;2022-10-16T01:30:04;20.30;57.30
35497;DHT22;21609;49.298;6.844;2022-10-16T01:32:49;20.30;57.30
35497;DHT22;21609;49.298;6.844;2022-10-16T01:40:45;20.30;57.30
35497;DHT22;21609;49.298;6.844;2022-10-16T01:43:19;20.30;57.30
35497;DHT22;21609;49.298;6.844;2022-10-16T01:45:46;20.30;57.30
35497;DHT22;21609;49.298;6.844;2022-10-16T01:48:17;20.30;57.30
35497;DHT22;21609;49.298;6.844;2022-10-16T01:50:44;20.30;57.30
35497;DHT22;21609;49.298;6.844;2022-10-16T01:53:15;20.30;57.30
35497;DHT22;21609;49.298;6.844;2022-10-16T01:55:44;20.30;57.30
35497;DHT22;21609;49.298;6.844;2022-10-16T01:58:13;20.30;57.30
35497;DHT22;21609;49.298;6.844;2022-10-16T02:00:42;20.30;57.30
35497;DHT22;21609;49.298;6.844;2022-10-16T02:03:09;20.30;57.30
35497;DHT22;21609;49.298;6.844;2022-10-16T02:05:52;20.30;57.40
35497;DHT22;21609;49.298;6.844;2022-10-16T02:08:19;20.30;57.30
35497;DHT22;21609;49.298;6.844;2022-10-16T02:10:45;20.30;57.30
35497;DHT22;21609;49.298;6.844;2022-10-16T02:13:22;20.30;57.30
35497;DHT22;21609;49.298;6.844;2022-10-16T02:15:49;20.30;57.30
35497;DHT22;21609;49.298;6.844;2022-10-16T02:18:14;20.30;57.30
35497;DHT22;21609;49.298;6.844;2022-10-16T02:23:16;20.30;57.40
35497;DHT22;21609;49.298;6.844;2022-10-16T02:25:44;20.30;57.30
35497;DHT22;21609;49.298;6.844;2022-10-16T02:28:17;20.20;57.30
35497;DHT22;21609;49.298;6.844;2022-10-16T02:30:58;20.30;58.00
35497;DHT22;21609;49.298;6.844;2022-10-16T02:33:26;20.20;57.30
35497;DHT22;21609;49.298;6.844;2022-10-16T02:35:53;20.30;57.30
35497;DHT22;21609;49.298;6.844;2022-10-16T02:38:20;20.20;57.30
35497;DHT22;21609;49.298;6.844;2022-10-16T02:40:46;20.20;57.30
35497;DHT22;21609;49.298;6.844;2022-10-16T02:43:12;20.20;57.40
35497;DHT22;21609;49.298;6.844;2022-10-16T02:45:38;20.20;57.40
35497;DHT22;21609;49.298;6.844;2022-10-16T02:48:04;20.20;57.30
35497;DHT22;21609;49.298;6.844;2022-10-16T02:50:30;20.20;57.30
35497;DHT22;21609;49.298;6.844;2022-10-16T02:52:55;20.20;57.30
35497;DHT22;21609;49.298;6.844;2022-10-16T02:55:21;20.20;57.30
35497;DHT22;21609;49.298;6.844;2022-10-16T02:57:47;20.20;57.90
35497;DHT22;21609;49.298;6.844;2022-10-16T03:00:14;20.20;57.40
35497;DHT22;21609;49.298;6.844;2022-10-16T03:02:40;20.20;57.30
35497;DHT22;21609;49.298;6.844;2022-10-16T03:05:07;20.20;57.30
35497;DHT22;21609;49.298;6.844;2022-10-16T03:07:32;20.20;57.30
35497;DHT22;21609;49.298;6.844;2022-10-16T03:09:58;20.20;57.30
35497;DHT22;21609;49.298;6.844;2022-10-16T03:12:26;20.20;57.30
35497;DHT22;21609;49.298;6.844;2022-10-16T03:14:52;20.10;57.30
35497;DHT22;21609;49.298;6.844;2022-10-16T03:17:17;20.10;57.30
35497;DHT22;21609;49.298;6.844;2022-10-16T03:19:43;20.20;57.30
35497;DHT22;21609;49.298;6.844;2022-10-16T03:22:08;20.20;57.40
35497;DHT22;21609;49.298;6.844;2022-10-16T03:24:34;20.20;57.40
35497;DHT22;21609;49.298;6.844;2022-10-16T03:27:00;20.10;57.30
35497;DHT22;21609;49.298;6.844;2022-10-16T03:29:26;20.20;57.40
35497;DHT22;21609;49.298;6.844;2022-10-16T03:31:51;20.10;57.30
35497;DHT22;21609;49.298;6.844;2022-10-16T03:34:17;20.10;57.30
35497;DHT22;21609;49.298;6.844;2022-10-16T03:36:42;20.10;57.40
35497;DHT22;21609;49.298;6.844;2022-10-16T03:39:08;20.10;57.30
35497;DHT22;21609;49.298;6.844;2022-10-16T03:41:33;20.10;57.30
35497;DHT22;21609;49.298;6.844;2022-10-16T03:43:59;20.10;57.40
35497;DHT22;21609;49.298;6.844;2022-10-16T03:46:24;20.10;57.30
35497;DHT22;21609;49.298;6.844;2022-10-16T03:48:50;20.10;57.30
35497;DHT22;21609;49.298;6.844;2022-10-16T03:51:16;20.10;57.30
35497;DHT22;21609;49.298;6.844;2022-10-16T03:53:41;20.10;57.40
35497;DHT22;21609;49.298;6.844;2022-10-16T03:56:07;20.10;57.30
35497;DHT22;21609;49.298;6.844;2022-10-16T03:58:32;20.10;57.30
35497;DHT22;21609;49.298;6.844;2022-10-16T04:00:58;20.10;57.30
35497;DHT22;21609;49.298;6.844;2022-10-16T04:03:24;20.10;57.40
35497;DHT22;21609;49.298;6.844;2022-10-16T04:05:50;20.10;57.30
35497;DHT22;21609;49.298;6.844;2022-10-16T04:08:15;20.10;57.30
35497;DHT22;21609;49.298;6.844;2022-10-16T04:10:44;20.10;57.30
35497;DHT22;21609;49.298;6.844;2022-10-16T04:13:10;20.10;57.30
35497;DHT22;21609;49.298;6.844;2022-10-16T04:15:35;20.10;57.30
35497;DHT22;21609;49.298;6.844;2022-10-16T04:18:01;20.10;57.30
35497;DHT22;21609;49.298;6.844;2022-10-16T04:20:26;20.10;57.30
35497;DHT22;21609;49.298;6.844;2022-10-16T04:22:52;20.10;57.30
35497;DHT22;21609;49.298;6.844;2022-10-16T04:25:18;20.10;57.30
35497;DHT22;21609;49.298;6.844;2022-10-16T04:27:44;20.10;57.30
35497;DHT22;21609;49.298;6.844;2022-10-16T04:30:10;20.10;57.40
35497;DHT22;21609;49.298;6.844;2022-10-16T04:32:35;20.10;57.30
35497;DHT22;21609;49.298;6.844;2022-10-16T04:35:01;20.10;57.40
35497;DHT22;21609;49.298;6.844;2022-10-16T04:37:28;20.10;57.40
35497;DHT22;21609;49.298;6.844;2022-10-16T04:39:53;20.10;57.30
35497;DHT22;21609;49.298;6.844;2022-10-16T04:42:20;20.00;57.30
35497;DHT22;21609;49.298;6.844;2022-10-16T04:44:46;20.10;57.30
35497;DHT22;21609;49.298;6.844;2022-10-16T04:47:12;20.00;57.30
35497;DHT22;21609;49.298;6.844;2022-10-16T04:49:38;20.00;57.30
35497;DHT22;21609;49.298;6.844;2022-10-16T04:52:04;20.00;57.30
35497;DHT22;21609;49.298;6.844;2022-10-16T04:54:30;20.00;57.30
35497;DHT22;21609;49.298;6.844;2022-10-16T04:56:55;20.00;57.30
35497;DHT22;21609;49.298;6.844;2022-10-16T04:59:22;20.00;57.30
35497;DHT22;21609;49.298;6.844;2022-10-16T05:01:47;20.00;57.40
35497;DHT22;21609;49.298;6.844;2022-10-16T05:04:13;20.00;57.60
35497;DHT22;21609;49.298;6.844;2022-10-16T05:06:40;20.00;57.80
35497;DHT22;21609;49.298;6.844;2022-10-16T05:09:06;20.00;58.00
35497;DHT22;21609;49.298;6.844;2022-10-16T05:11:32;20.00;58.00
35497;DHT22;21609;49.298;6.844;2022-10-16T05:13:58;20.00;58.10
35497;DHT22;21609;49.298;6.844;2022-10-16T05:16:24;20.00;57.90
35497;DHT22;21609;49.298;6.844;2022-10-16T05:18:51;20.00;57.80
35497;DHT22;21609;49.298;6.844;2022-10-16T05:21:16;20.00;57.70
35497;DHT22;21609;49.298;6.844;2022-10-16T05:23:42;20.00;57.70
35497;DHT22;21609;49.298;6.844;2022-10-16T05:26:08;20.00;57.70
35497;DHT22;21609;49.298;6.844;2022-10-16T05:28:34;20.00;57.70
35497;DHT22;21609;49.298;6.844;2022-10-16T05:31:03;20.00;57.70
35497;DHT22;21609;49.298;6.844;2022-10-16T05:33:29;20.00;57.70
35497;DHT22;21609;49.298;6.844;2022-10-16T05:35:54;20.00;58.00
35497;DHT22;21609;49.298;6.844;2022-10-16T05:38:20;20.00;58.60
35497;DHT22;21609;49.298;6.844;2022-10-16T05:40:54;20.00;58.60
35497;DHT22;21609;49.298;6.844;2022-10-16T05:43:20;20.00;58.80
35497;DHT22;21609;49.298;6.844;2022-10-16T05:45:54;20.00;58.60
35497;DHT22;21609;49.298;6.844;2022-10-16T05:48:20;20.00;58.90
35497;DHT22;21609;49.298;6.844;2022-10-16T05:50:45;20.00;58.90
35497;DHT22;21609;49.298;6.844;2022-10-16T05:53:11;20.00;58.70
35497;DHT22;21609;49.298;6.844;2022-10-16T05:55:36;20.00;58.50
35497;DHT22;21609;49.298;6.844;2022-10-16T05:58:02;20.00;58.30
35497;DHT22;21609;49.298;6.844;2022-10-16T06:00:27;20.00;58.30
35497;DHT22;21609;49.298;6.844;2022-10-16T06:02:53;20.00;58.30
35497;DHT22;21609;49.298;6.844;2022-10-16T06:05:19;20.00;58.30
35497;DHT22;21609;49.298;6.844;2022-10-16T06:07:44;20.00;58.30
35497;DHT22;21609;49.298;6.844;2022-10-16T06:10:10;20.00;58.20
35497;DHT22;21609;49.298;6.844;2022-10-16T06:12:35;20.00;58.30
35497;DHT22;21609;49.298;6.844;2022-10-16T06:15:01;20.00;58.20
35497;DHT22;21609;49.298;6.844;2022-10-16T06:17:27;20.00;58.20
35497;DHT22;21609;49.298;6.844;2022-10-16T06:19:52;20.00;58.10
35497;DHT22;21609;49.298;6.844;2022-10-16T06:22:18;20.00;58.10
35497;DHT22;21609;49.298;6.844;2022-10-16T06:24:43;20.00;58.20
35497;DHT22;21609;49.298;6.844;2022-10-16T06:27:09;19.90;58.10
35497;DHT22;21609;49.298;6.844;2022-10-16T06:29:34;19.90;58.00
35497;DHT22;21609;49.298;6.844;2022-10-16T06:32:00;19.90;58.00
35497;DHT22;21609;49.298;6.844;2022-10-16T06:34:26;19.90;58.00
35497;DHT22;21609;49.298;6.844;2022-10-16T06:36:51;19.90;58.20
35497;DHT22;21609;49.298;6.844;2022-10-16T06:39:17;19.90;58.20
35497;DHT22;21609;49.298;6.844;2022-10-16T06:41:42;19.90;58.10
35497;DHT22;21609;49.298;6.844;2022-10-16T06:44:08;19.90;58.10
35497;DHT22;21609;49.298;6.844;2022-10-16T06:46:34;19.90;58.10
35497;DHT22;21609;49.298;6.844;2022-10-16T06:49:00;19.90;58.40
35497;DHT22;21609;49.298;6.844;2022-10-16T06:51:25;19.90;58.40
35497;DHT22;21609;49.298;6.844;2022-10-16T06:53:55;19.90;58.30
35497;DHT22;21609;49.298;6.844;2022-10-16T06:56:25;19.90;58.20
35497;DHT22;21609;49.298;6.844;2022-10-16T06:58:52;19.90;58.40
35497;DHT22;21609;49.298;6.844;2022-10-16T07:01:20;19.90;58.50
35497;DHT22;21609;49.298;6.844;2022-10-16T07:03:47;19.90;58.70
35497;DHT22;21609;49.298;6.844;2022-10-16T07:06:15;19.90;58.90
35497;DHT22;21609;49.298;6.844;2022-10-16T07:08:42;19.90;59.00
35497;DHT22;21609;49.298;6.844;2022-10-16T07:11:11;19.90;59.10
35497;DHT22;21609;49.298;6.844;2022-10-16T07:13:38;19.90;59.10
35497;DHT22;21609;49.298;6.844;2022-10-16T07:16:08;19.90;59.20
35497;DHT22;21609;49.298;6.844;2022-10-16T07:18:34;19.90;59.20
35497;DHT22;21609;49.298;6.844;2022-10-16T07:21:09;19.90;59.10
35497;DHT22;21609;49.298;6.844;2022-10-16T07:23:35;19.90;59.30
35497;DHT22;21609;49.298;6.844;2022-10-16T07:26:00;19.90;59.10
35497;DHT22;21609;49.298;6.844;2022-10-16T07:28:26;19.90;59.20
35497;DHT22;21609;49.298;6.844;2022-10-16T07:30:52;19.90;59.20
35497;DHT22;21609;49.298;6.844;2022-10-16T07:33:18;19.90;59.10
35497;DHT22;21609;49.298;6.844;2022-10-16T07:35:54;19.90;59.50
35497;DHT22;21609;49.298;6.844;2022-10-16T07:38:21;19.90;59.60
35497;DHT22;21609;49.298;6.844;2022-10-16T07:40:47;20.00;59.60
35497;DHT22;21609;49.298;6.844;2022-10-16T07:43:14;20.10;59.30
35497;DHT22;21609;49.298;6.844;2022-10-16T07:45:49;20.10;59.30
35497;DHT22;21609;49.298;6.844;2022-10-16T07:48:16;20.20;59.30
35497;DHT22;21609;49.298;6.844;2022-10-16T07:50:42;20.20;59.10
35497;DHT22;21609;49.298;6.844;2022-10-16T07:53:08;20.30;59.20
35497;DHT22;21609;49.298;6.844;2022-10-16T07:55:33;20.40;59.10
35497;DHT22;21609;49.298;6.844;2022-10-16T07:57:59;20.40;59.10
35497;DHT22;21609;49.298;6.844;2022-10-16T08:00:24;20.50;59.10
35497;DHT22;21609;49.298;6.844;2022-10-16T08:02:50;20.60;59.10
35497;DHT22;21609;49.298;6.844;2022-10-16T08:05:15;20.60;58.90
35497;DHT22;21609;49.298;6.844;2022-10-16T08:07:41;20.70;58.90
35497;DHT22;21609;49.298;6.844;2022-10-16T08:10:14;20.70;59.40
35497;DHT22;21609;49.298;6.844;2022-10-16T08:12:41;20.60;59.60
35497;DHT22;21609;49.298;6.844;2022-10-16T08:15:07;20.60;59.80
35497;DHT22;21609;49.298;6.844;2022-10-16T08:17:32;20.70;59.80
35497;DHT22;21609;49.298;6.844;2022-10-16T08:19:58;20.60;59.80
35497;DHT22;21609;49.298;6.844;2022-10-16T08:22:23;20.70;60.00
35497;DHT22;21609;49.298;6.844;2022-10-16T08:24:49;20.70;59.90
35497;DHT22;21609;49.298;6.844;2022-10-16T08:27:15;20.70;60.00
35497;DHT22;21609;49.298;6.844;2022-10-16T08:29:40;20.70;59.90
35497;DHT22;21609;49.298;6.844;2022-10-16T08:32:06;20.80;60.00
35497;DHT22;21609;49.298;6.844;2022-10-16T08:34:31;20.80;60.00
35497;DHT22;21609;49.298;6.844;2022-10-16T08:36:57;20.80;59.90
35497;DHT22;21609;49.298;6.844;2022-10-16T08:39:22;20.80;59.90
35497;DHT22;21609;49.298;6.844;2022-10-16T08:42:01;20.90;59.90
35497;DHT22;21609;49.298;6.844;2022-10-16T08:44:42;20.90;59.90
35497;DHT22;21609;49.298;6.844;2022-10-16T08:47:26;20.90;59.80
35497;DHT22;21609;49.298;6.844;2022-10-16T08:50:02;20.90;59.90
35497;DHT22;21609;49.298;6.844;2022-10-16T08:52:35;21.00;59.90
35497;DHT22;21609;49.298;6.844;2022-10-16T08:55:04;20.90;59.90
35497;DHT22;21609;49.298;6.844;2022-10-16T08:57:30;21.00;59.90
35497;DHT22;21609;49.298;6.844;2022-10-16T09:00:00;21.00;59.90
35497;DHT22;21609;49.298;6.844;2022-10-16T09:03:04;21.10;59.90
35497;DHT22;21609;49.298;6.844;2022-10-16T09:06:17;21.10;59.90
35497;DHT22;21609;49.298;6.844;2022-10-16T09:11:21;21.20;59.80
35497;DHT22;21609;49.298;6.844;2022-10-16T09:13:58;21.30;60.20
35497;DHT22;21609;49.298;6.844;2022-10-16T09:16:36;21.40;60.10
35497;DHT22;21609;49.298;6.844;2022-10-16T09:21:53;21.50;59.90
35497;DHT22;21609;49.298;6.844;2022-10-16T09:24:25;21.50;59.90
35497;DHT22;21609;49.298;6.844;2022-10-16T09:26:51;21.60;60.00
35497;DHT22;21609;49.298;6.844;2022-10-16T09:29:19;21.60;59.90
35497;DHT22;21609;49.298;6.844;2022-10-16T09:31:46;21.60;59.90
35497;DHT22;21609;49.298;6.844;2022-10-16T09:34:25;21.60;60.00
35497;DHT22;21609;49.298;6.844;2022-10-16T09:36:56;21.70;60.10
35497;DHT22;21609;49.298;6.844;2022-10-16T09:39:22;21.70;60.00
35497;DHT22;21609;49.298;6.844;2022-10-16T09:41:48;21.80;59.90
35497;DHT22;21609;49.298;6.844;2022-10-16T09:44:33;21.80;59.70
35497;DHT22;21609;49.298;6.844;2022-10-16T09:47:12;21.80;59.80
35497;DHT22;21609;49.298;6.844;2022-10-16T09:49:38;21.90;59.70
35497;DHT22;21609;49.298;6.844;2022-10-16T09:52:05;21.90;59.70
35497;DHT22;21609;49.298;6.844;2022-10-16T09:54:31;21.90;59.60
35497;DHT22;21609;49.298;6.844;2022-10-16T09:57:26;21.90;59.50
35497;DHT22;21609;49.298;6.844;2022-10-16T09:59:56;22.00;59.70
35497;DHT22;21609;49.298;6.844;2022-10-16T10:02:31;22.00;59.60
35497;DHT22;21609;49.298;6.844;2022-10-16T10:04:59;22.00;59.60
35497;DHT22;21609;49.298;6.844;2022-10-16T10:07:27;22.00;59.50
35497;DHT22;21609;49.298;6.844;2022-10-16T10:09:55;22.00;59.40
35497;DHT22;21609;49.298;6.844;2022-10-16T10:12:28;22.00;59.40
35497;DHT22;21609;49.298;6.844;2022-10-16T10:14:58;22.00;59.30
35497;DHT22;21609;49.298;6.844;2022-10-16T10:17:29;22.00;59.30
35497;DHT22;21609;49.298;6.844;2022-10-16T10:19:57;22.00;59.30
35497;DHT22;21609;49.298;6.844;2022-10-16T10:30:48;22.00;59.20
35497;DHT22;21609;49.298;6.844;2022-10-16T10:33:28;22.00;59.20
35497;DHT22;21609;49.298;6.844;2022-10-16T10:38:44;22.00;59.10
35497;DHT22;21609;49.298;6.844;2022-10-16T10:44:35;22.00;59.10
35497;DHT22;21609;49.298;6.844;2022-10-16T10:52:52;22.00;59.20
35497;DHT22;21609;49.298;6.844;2022-10-16T11:07:05;22.00;59.50
35497;DHT22;21609;49.298;6.844;2022-10-16T11:09:44;22.00;59.60
35497;DHT22;21609;49.298;6.844;2022-10-16T11:12:20;22.00;59.60
35497;DHT22;21609;49.298;6.844;2022-10-16T11:19:54;21.90;59.40
35497;DHT22;21609;49.298;6.844;2022-10-16T11:22:37;21.90;60.00
35497;DHT22;21609;49.298;6.844;2022-10-16T11:25:23;21.90;59.40
35497;DHT22;21609;49.298;6.844;2022-10-16T11:38:41;21.90;59.40
35497;DHT22;21609;49.298;6.844;2022-10-16T11:49:33;21.80;59.30
35497;DHT22;21609;49.298;6.844;2022-10-16T11:54:52;21.80;59.30
35497;DHT22;21609;49.298;6.844;2022-10-16T11:57:24;21.80;59.40
35497;DHT22;21609;49.298;6.844;2022-10-16T12:00:08;21.80;59.30
35497;DHT22;21609;49.298;6.844;2022-10-16T12:02:54;21.80;59.40
35497;DHT22;21609;49.298;6.844;2022-10-16T12:08:10;21.80;59.50
35497;DHT22;21609;49.298;6.844;2022-10-16T12:10:39;21.80;59.40
35497;DHT22;21609;49.298;6.844;2022-10-16T12:13:26;21.80;59.30
35497;DHT22;21609;49.298;6.844;2022-10-16T12:15:50;21.90;59.40
35497;DHT22;21609;49.298;6.844;2022-10-16T12:18:24;21.90;59.30
35497;DHT22;21609;49.298;6.844;2022-10-16T12:20:57;21.90;59.40
35497;DHT22;21609;49.298;6.844;2022-10-16T12:23:30;21.90;59.30
35497;DHT22;21609;49.298;6.844;2022-10-16T12:25:58;21.90;59.50
35497;DHT22;21609;49.298;6.844;2022-10-16T12:28:29;21.90;59.90
35497;DHT22;21609;49.298;6.844;2022-10-16T12:33:25;21.90;59.40
35497;DHT22;21609;49.298;6.844;2022-10-16T12:35:52;21.90;59.60
35497;DHT22;21609;49.298;6.844;2022-10-16T12:38:19;21.90;59.60
35497;DHT22;21609;49.298;6.844;2022-10-16T12:40:53;21.90;59.50
35497;DHT22;21609;49.298;6.844;2022-10-16T12:45:45;21.90;59.40
35497;DHT22;21609;49.298;6.844;2022-10-16T12:48:20;22.00;59.40
35497;DHT22;21609;49.298;6.844;2022-10-16T12:50:47;22.00;59.40
35497;DHT22;21609;49.298;6.844;2022-10-16T12:53:23;22.00;59.30
35497;DHT22;21609;49.298;6.844;2022-10-16T12:59:05;21.90;59.80
35497;DHT22;21609;49.298;6.844;2022-10-16T13:08:22;21.90;59.20
35497;DHT22;21609;49.298;6.844;2022-10-16T13:11:23;22.00;59.30
35497;DHT22;21609;49.298;6.844;2022-10-16T13:14:17;21.90;59.20
35497;DHT22;21609;49.298;6.844;2022-10-16T13:22:59;21.90;59.10
35497;DHT22;21609;49.298;6.844;2022-10-16T13:28:33;21.90;59.00
35497;DHT22;21609;49.298;6.844;2022-10-16T13:31:01;21.90;59.00
35497;DHT22;21609;49.298;6.844;2022-10-16T13:33:39;22.00;59.00
35497;DHT22;21609;49.298;6.844;2022-10-16T13:36:05;22.00;59.10
35497;DHT22;21609;49.298;6.844;2022-10-16T13:38:33;22.00;59.00
35497;DHT22;21609;49.298;6.844;2022-10-16T13:41:05;21.90;58.90
35497;DHT22;21609;49.298;6.844;2022-10-16T13:43:36;22.00;58.90
35497;DHT22;21609;49.298;6.844;2022-10-16T13:46:05;22.00;58.90
35497;DHT22;21609;49.298;6.844;2022-10-16T13:48:33;22.00;58.90
35497;DHT22;21609;49.298;6.844;2022-10-16T13:51:00;22.00;58.90
35497;DHT22;21609;49.298;6.844;2022-10-16T13:53:26;22.00;58.90
35497;DHT22;21609;49.298;6.844;2022-10-16T13:55:51;22.00;58.90
35497;DHT22;21609;49.298;6.844;2022-10-16T13:58:17;22.00;58.80
35497;DHT22;21609;49.298;6.844;2022-10-16T14:01:03;22.00;58.80
35497;DHT22;21609;49.298;6.844;2022-10-16T14:03:32;22.00;58.80
35497;DHT22;21609;49.298;6.844;2022-10-16T14:06:01;22.00;58.80
35497;DHT22;21609;49.298;6.844;2022-10-16T14:08:28;22.00;58.80
35497;DHT22;21609;49.298;6.844;2022-10-16T14:10:56;22.00;59.40
35497;DHT22;21609;49.298;6.844;2022-10-16T14:13:44;22.00;58.80
35497;DHT22;21609;49.298;6.844;2022-10-16T14:16:17;22.00;58.70
35497;DHT22;21609;49.298;6.844;2022-10-16T14:18:50;22.00;58.70
35497;DHT22;21609;49.298;6.844;2022-10-16T14:21:19;22.00;58.80
35497;DHT22;21609;49.298;6.844;2022-10-16T14:23:45;22.00;58.70
35497;DHT22;21609;49.298;6.844;2022-10-16T14:28:39;21.90;59.30
35497;DHT22;21609;49.298;6.844;2022-10-16T14:33:49;21.90;58.80
35497;DHT22;21609;49.298;6.844;2022-10-16T14:36:16;21.90;58.80
35497;DHT22;21609;49.298;6.844;2022-10-16T14:39:01;21.90;58.70
35497;DHT22;21609;49.298;6.844;2022-10-16T14:41:28;21.90;58.80
35497;DHT22;21609;49.298;6.844;2022-10-16T14:43:56;21.90;58.90
35497;DHT22;21609;49.298;6.844;2022-10-16T14:46:36;21.90;58.90
35497;DHT22;21609;49.298;6.844;2022-10-16T14:51:38;21.90;58.90
35497;DHT22;21609;49.298;6.844;2022-10-16T14:54:08;21.80;58.90
35497;DHT22;21609;49.298;6.844;2022-10-16T14:59:24;21.80;59.00
35497;DHT22;21609;49.298;6.844;2022-10-16T15:01:50;21.80;59.00
35497;DHT22;21609;49.298;6.844;2022-10-16T15:04:16;21.90;59.10
35497;DHT22;21609;49.298;6.844;2022-10-16T15:06:43;21.80;59.10
35497;DHT22;21609;49.298;6.844;2022-10-16T15:09:08;21.80;58.90
35497;DHT22;21609;49.298;6.844;2022-10-16T15:11:34;21.80;58.90
35497;DHT22;21609;49.298;6.844;2022-10-16T15:14:00;21.80;59.00
35497;DHT22;21609;49.298;6.844;2022-10-16T15:16:25;21.80;59.00
35497;DHT22;21609;49.298;6.844;2022-10-16T15:18:51;21.80;59.00
35497;DHT22;21609;49.298;6.844;2022-10-16T15:21:30;21.80;59.00
35497;DHT22;21609;49.298;6.844;2022-10-16T15:23:56;21.80;58.90
35497;DHT22;21609;49.298;6.844;2022-10-16T15:26:23;21.80;58.90
35497;DHT22;21609;49.298;6.844;2022-10-16T15:28:49;21.80;59.00
35497;DHT22;21609;49.298;6.844;2022-10-16T15:31:15;21.80;59.00
35497;DHT22;21609;49.298;6.844;2022-10-16T15:33:40;21.70;59.00
35497;DHT22;21609;49.298;6.844;2022-10-16T15:36:06;21.70;59.00
35497;DHT22;21609;49.298;6.844;2022-10-16T15:38:32;21.70;59.00
35497;DHT22;21609;49.298;6.844;2022-10-16T15:40:58;21.70;59.00
35497;DHT22;21609;49.298;6.844;2022-10-16T15:43:24;21.70;59.10
35497;DHT22;21609;49.298;6.844;2022-10-16T15:46:08;21.70;59.10
35497;DHT22;21609;49.298;6.844;2022-10-16T15:48:35;21.70;59.10
35497;DHT22;21609;49.298;6.844;2022-10-16T15:51:05;21.70;59.10
35497;DHT22;21609;49.298;6.844;2022-10-16T15:53:30;21.70;59.10
35497;DHT22;21609;49.298;6.844;2022-10-16T15:56:02;21.70;59.10
35497;DHT22;21609;49.298;6.844;2022-10-16T15:58:28;21.70;59.00
35497;DHT22;21609;49.298;6.844;2022-10-16T16:00:56;21.60;58.90
35497;DHT22;21609;49.298;6.844;2022-10-16T16:03:23;21.70;59.00
35497;DHT22;21609;49.298;6.844;2022-10-16T16:05:49;21.70;59.00
35497;DHT22;21609;49.298;6.844;2022-10-16T16:08:14;21.70;59.00
35497;DHT22;21609;49.298;6.844;2022-10-16T16:10:40;21.60;59.00
35497;DHT22;21609;49.298;6.844;2022-10-16T16:13:06;21.60;59.10
35497;DHT22;21609;49.298;6.844;2022-10-16T16:15:32;21.60;58.90
35497;DHT22;21609;49.298;6.844;2022-10-16T16:17:58;21.60;58.90
35497;DHT22;21609;49.298;6.844;2022-10-16T16:20:24;21.60;58.90
35497;DHT22;21609;49.298;6.844;2022-10-16T16:22:49;21.60;58.90
35497;DHT22;21609;49.298;6.844;2022-10-16T16:25:16;21.60;58.90
35497;DHT22;21609;49.298;6.844;2022-10-16T16:27:41;21.50;58.80
35497;DHT22;21609;49.298;6.844;2022-10-16T16:30:09;21.60;58.90
35497;DHT22;21609;49.298;6.844;2022-10-16T16:32:35;21.60;58.90
35497;DHT22;21609;49.298;6.844;2022-10-16T16:35:01;21.60;58.90
35497;DHT22;21609;49.298;6.844;2022-10-16T16:37:27;21.50;58.90
35497;DHT22;21609;49.298;6.844;2022-10-16T16:39:56;21.50;58.90
35497;DHT22;21609;49.298;6.844;2022-10-16T16:42:26;21.50;58.90
35497;DHT22;21609;49.298;6.844;2022-10-16T16:44:53;21.50;58.90
35497;DHT22;21609;49.298;6.844;2022-10-16T16:47:18;21.50;58.90
35497;DHT22;21609;49.298;6.844;2022-10-16T16:49:44;21.50;59.00
35497;DHT22;21609;49.298;6.844;2022-10-16T16:52:12;21.50;59.00
35497;DHT22;21609;49.298;6.844;2022-10-16T16:54:38;21.50;59.00
35497;DHT22;21609;49.298;6.844;2022-10-16T16:57:03;21.40;58.90
35497;DHT22;21609;49.298;6.844;2022-10-16T16:59:29;21.50;58.90
35497;DHT22;21609;49.298;6.844;2022-10-16T17:02:00;21.40;59.00
35497;DHT22;21609;49.298;6.844;2022-10-16T17:04:26;21.40;59.10
35497;DHT22;21609;49.298;6.844;2022-10-16T17:06:55;21.40;59.10
35497;DHT22;21609;49.298;6.844;2022-10-16T17:09:21;21.40;59.10
35497;DHT22;21609;49.298;6.844;2022-10-16T17:11:47;21.40;59.20
35497;DHT22;21609;49.298;6.844;2022-10-16T17:14:14;21.40;59.30
35497;DHT22;21609;49.298;6.844;2022-10-16T17:16:40;21.40;59.40
35497;DHT22;21609;49.298;6.844;2022-10-16T17:19:12;21.40;59.40
35497;DHT22;21609;49.298;6.844;2022-10-16T17:21:38;21.40;59.30
35497;DHT22;21609;49.298;6.844;2022-10-16T17:24:04;21.40;59.40
35497;DHT22;21609;49.298;6.844;2022-10-16T17:26:31;21.40;59.40
35497;DHT22;21609;49.298;6.844;2022-10-16T17:28:59;21.40;59.40
35497;DHT22;21609;49.298;6.844;2022-10-16T17:31:28;21.50;59.40
35497;DHT22;21609;49.298;6.844;2022-10-16T17:33:54;21.40;59.30
35497;DHT22;21609;49.298;6.844;2022-10-16T17:36:21;21.40;59.40